Main page
METAR-TAF:

METAR-TAF

Airports :

Aigen im Ennstal, Austria

latitude: 47-32N, longitude: 014-08E, elevation: 638 m

METAR: missing

Time: 00:41 (22:41 UTC)

Forecast

The report was made 11 hours and 26 minutes ago, at 11:15 UTC
Forecast valid from 26 at 12 UTC to 26 at 21 UTC
Wind 7 kt from the West
Visibility 10 km or more
Few clouds at a height of 1500 ft
Scattered clouds at a height of 3000 ft
Broken clouds at a height of 5000 ft
Becoming
from 26 at 17 UTC to 26 at 19 UTC
Wind 3 kt from variable directions
Scattered clouds at a height of 4000 ft
Scattered clouds at a height of 6000 ft

TAF: LOXA 261115Z 2612/2621 27007KT 9999 FEW015 SCT030 BKN050 BECMG 2617/2619 VRB03KT SCT040 SCT060

Weather observations and forecasts of more than 4000 airports (METAR and TAF reports).

The available stations are represented by yellow and red dots on the map.

Hover mouse over dot to see the name of the station.

Then click to see weather observations and forecasts.

To change the map : click on the green buttons with a black cross to zoom in, on the green button with a dash to zoom out, or on the green arrows for adjacent maps.


METAR-TAF: